Time;durP1;ratioP1;P1;durP2;ratioP2;P2;SDS_P1;SDS_P2;PMS_P1;PMS_P2;Temp;Humidity;BMP_temperature;BMP_pressure;BME280_temperature;BME280_humidity;BME280_pressure;Samples;Min_cycle;Max_cycle;Signal;HPM_P1;HPM_P2
2022/06/15 00:00:57;;;;;;;1.27;1.17;;;14.00;99.90;;;;;;4962290;28;20907;-87
2022/06/15 00:03:25;;;;;;;1.50;1.20;;;14.00;99.90;;;;;;4964588;28;20484;-87
2022/06/15 00:06:03;;;;;;;1.23;1.10;;;14.00;99.90;;;;;;4965632;28;21074;-87
2022/06/15 00:08:30;;;;;;;0.90;0.73;;;14.00;99.90;;;;;;4961460;28;20510;-88
2022/06/15 00:10:57;;;;;;;0.80;0.77;;;13.90;99.90;;;;;;4960557;28;21182;-87
2022/06/15 00:13:24;;;;;;;1.00;0.90;;;13.90;99.90;;;;;;4962930;28;20542;-87
2022/06/15 00:15:51;;;;;;;1.20;0.90;;;13.80;99.90;;;;;;4970553;28;20480;-87
2022/06/15 00:18:18;;;;;;;0.80;0.80;;;13.70;99.90;;;;;;4962422;28;20471;-86
2022/06/15 00:20:46;;;;;;;2.63;0.87;;;13.60;99.90;;;;;;4964268;28;20476;-88
2022/06/15 00:23:15;;;;;;;1.37;1.27;;;13.60;99.90;;;;;;4965168;28;20483;-86
2022/06/15 00:25:42;;;;;;;6.33;1.50;;;13.60;99.90;;;;;;4961217;28;20480;-86
2022/06/15 00:28:09;;;;;;;1.50;1.40;;;13.60;99.90;;;;;;4962264;28;20485;-87
2022/06/15 00:30:36;;;;;;;1.00;0.97;;;13.50;99.90;;;;;;4962623;28;20899;-87
2022/06/15 00:33:03;;;;;;;0.73;0.67;;;13.40;99.90;;;;;;4964876;28;20479;-87
2022/06/15 00:35:30;;;;;;;1.37;1.07;;;13.50;99.90;;;;;;4963096;28;20509;-86
2022/06/15 00:37:57;;;;;;;4.57;1.57;;;13.30;99.90;;;;;;4962132;28;20472;-87
2022/06/15 00:40:25;;;;;;;0.90;0.90;;;13.20;99.90;;;;;;4964169;28;20468;-86
2022/06/15 00:42:52;;;;;;;2.13;1.07;;;13.00;99.90;;;;;;4963613;28;20596;-87
2022/06/15 00:45:19;;;;;;;1.07;0.97;;;13.00;99.90;;;;;;4963774;28;20471;-88
2022/06/15 00:47:47;;;;;;;1.30;1.20;;;13.00;99.90;;;;;;4963737;28;20468;-88
2022/06/15 00:50:19;;;;;;;2.40;0.93;;;13.00;99.90;;;;;;4964243;28;20474;-87
2022/06/15 00:52:52;;;;;;;0.97;0.77;;;13.00;99.90;;;;;;4961097;28;20472;-86
2022/06/15 00:55:22;;;;;;;1.13;0.87;;;13.00;99.90;;;;;;4961518;28;20523;-86
2022/06/15 00:57:51;;;;;;;0.90;0.80;;;12.90;99.90;;;;;;4958885;28;20494;-87
2022/06/15 01:00:20;;;;;;;1.10;1.03;;;12.80;99.90;;;;;;4961661;28;20560;-87
2022/06/15 01:02:47;;;;;;;2.20;1.00;;;12.70;99.90;;;;;;4965448;28;20476;-87
2022/06/15 01:05:17;;;;;;;1.53;1.10;;;12.70;99.90;;;;;;4963504;28;20478;-86
2022/06/15 01:08:16;;;;;;;1.87;1.00;;;12.60;99.90;;;;;;4963549;28;20476;-87
2022/06/15 01:10:55;;;;;;;1.07;0.77;;;12.40;99.90;;;;;;4962536;28;20478;-88
2022/06/15 01:13:39;;;;;;;1.23;0.80;;;12.30;99.90;;;;;;4960997;28;20475;-88
2022/06/15 01:16:13;;;;;;;1.10;0.90;;;12.30;99.90;;;;;;4963373;28;21622;-87
2022/06/15 01:18:48;;;;;;;2.03;0.90;;;12.30;99.90;;;;;;4963267;28;20467;-87
2022/06/15 01:21:22;;;;;;;0.80;0.80;;;12.20;99.90;;;;;;4962784;28;20473;-87
2022/06/15 01:24:16;;;;;;;0.83;0.83;;;12.20;99.90;;;;;;4962048;28;20488;-87
2022/06/15 01:27:20;;;;;;;1.03;0.93;;;12.10;99.90;;;;;;4961747;28;20472;-87
2022/06/15 01:30:10;;;;;;;1.03;0.73;;;12.00;99.90;;;;;;4962945;28;20568;-87
2022/06/15 01:32:43;;;;;;;2.17;1.30;;;11.90;99.90;;;;;;4960473;28;20462;-87
2022/06/15 01:35:15;;;;;;;1.37;0.90;;;12.00;99.90;;;;;;4961494;28;20475;-87
2022/06/15 01:37:48;;;;;;;2.00;1.23;;;11.90;99.90;;;;;;4955467;28;20477;-87
2022/06/15 01:40:20;;;;;;;0.87;0.87;;;11.80;99.90;;;;;;4960720;28;20552;-87
2022/06/15 01:42:51;;;;;;;1.20;0.90;;;11.80;99.90;;;;;;4966799;28;21883;-87
2022/06/15 01:45:22;;;;;;;0.80;0.80;;;11.80;99.90;;;;;;4973955;28;20516;-86
2022/06/15 01:47:52;;;;;;;1.93;1.50;;;11.70;99.90;;;;;;4976424;28;20486;-86
2022/06/15 01:50:23;;;;;;;0.70;0.63;;;11.70;99.90;;;;;;4975506;28;20524;-88
2022/06/15 01:52:55;;;;;;;0.80;0.80;;;11.80;99.90;;;;;;4963460;28;20479;-87
2022/06/15 01:55:26;;;;;;;1.30;1.20;;;11.70;99.90;;;;;;4963022;28;20828;-87
2022/06/15 01:57:56;;;;;;;2.53;1.77;;;11.70;99.90;;;;;;4963587;28;21018;-87
2022/06/15 02:00:25;;;;;;;0.73;0.73;;;11.80;99.90;;;;;;4962492;28;21941;-87
2022/06/15 02:03:00;;;;;;;0.97;0.87;;;11.80;99.90;;;;;;4961058;28;20470;-87
2022/06/15 02:05:42;;;;;;;1.47;1.00;;;11.90;99.90;;;;;;4961995;28;20997;-87
2022/06/15 02:08:15;;;;;;;0.63;0.63;;;11.80;99.90;;;;;;4961492;28;20561;-86
2022/06/15 02:10:51;;;;;;;0.90;0.67;;;11.90;99.90;;;;;;4961248;28;20469;-87
2022/06/15 02:13:26;;;;;;;1.20;1.10;;;11.90;99.90;;;;;;4962688;28;20470;-86
2022/06/15 02:16:01;;;;;;;1.37;1.03;;;11.80;99.90;;;;;;4960711;28;20490;-86
2022/06/15 02:18:29;;;;;;;1.50;1.40;;;11.70;99.90;;;;;;4960024;28;20466;-87
2022/06/15 02:21:02;;;;;;;2.50;0.87;;;11.70;99.90;;;;;;4959130;28;20470;-87
2022/06/15 02:23:33;;;;;;;0.90;0.90;;;11.60;99.90;;;;;;4959583;28;20529;-86
2022/06/15 02:26:02;;;;;;;1.77;1.23;;;11.60;99.90;;;;;;4958633;28;20471;-87
2022/06/15 02:28:34;;;;;;;2.30;0.80;;;11.60;99.90;;;;;;4962997;28;20479;-87
2022/06/15 02:31:02;;;;;;;2.93;0.70;;;11.50;99.90;;;;;;4962836;28;21199;-88
2022/06/15 02:33:31;;;;;;;2.00;1.70;;;11.60;99.90;;;;;;4960755;28;20890;-87
2022/06/15 02:36:00;;;;;;;0.97;0.97;;;11.50;99.90;;;;;;4961441;28;20998;-87
2022/06/15 02:38:29;;;;;;;1.30;0.83;;;11.50;99.90;;;;;;4962707;28;20473;-87
2022/06/15 02:40:57;;;;;;;1.23;1.00;;;11.40;99.90;;;;;;4959507;28;20470;-88
2022/06/15 02:43:30;;;;;;;0.90;0.87;;;11.40;99.90;;;;;;4961293;28;21101;-87
2022/06/15 02:45:59;;;;;;;1.17;1.07;;;11.40;99.90;;;;;;4960752;28;20536;-87
2022/06/15 02:48:28;;;;;;;0.63;0.63;;;11.30;99.90;;;;;;4963391;28;20959;-87
2022/06/15 02:50:58;;;;;;;2.93;1.00;;;11.30;99.90;;;;;;4960817;28;20470;-86
2022/06/15 02:53:29;;;;;;;0.93;0.80;;;11.30;99.90;;;;;;4959063;28;20472;-87
2022/06/15 02:55:58;;;;;;;1.73;1.17;;;11.30;99.90;;;;;;4957100;28;20492;-86
2022/06/15 02:58:27;;;;;;;1.10;0.80;;;11.40;99.90;;;;;;4959374;28;20504;-86
2022/06/15 03:00:55;;;;;;;1.80;1.03;;;11.30;99.90;;;;;;4961161;28;20546;-87
2022/06/15 03:03:23;;;;;;;2.50;1.07;;;11.40;99.90;;;;;;4958775;28;20992;-86
2022/06/15 03:05:52;;;;;;;2.90;0.80;;;11.30;99.90;;;;;;4961038;28;20474;-86
2022/06/15 03:08:21;;;;;;;0.80;0.70;;;11.30;99.90;;;;;;4959382;28;20519;-86
2022/06/15 03:10:50;;;;;;;1.13;0.83;;;11.30;99.90;;;;;;4960201;28;20550;-87
2022/06/15 03:13:17;;;;;;;1.00;1.00;;;11.30;99.90;;;;;;4962520;28;20535;-86
2022/06/15 03:15:44;;;;;;;0.80;0.80;;;11.20;99.90;;;;;;4958225;28;20470;-86
2022/06/15 03:18:11;;;;;;;1.07;0.83;;;11.20;99.90;;;;;;4961900;28;20503;-86
2022/06/15 03:20:38;;;;;;;1.57;1.43;;;11.20;99.90;;;;;;4958822;28;20544;-86
2022/06/15 03:23:06;;;;;;;2.90;0.80;;;11.20;99.90;;;;;;4961673;28;20477;-86
2022/06/15 03:25:34;;;;;;;1.90;1.60;;;11.20;99.90;;;;;;4959135;28;20473;-87
2022/06/15 03:28:01;;;;;;;1.77;0.80;;;11.20;99.90;;;;;;4960508;28;20468;-86
2022/06/15 03:30:28;;;;;;;1.90;1.50;;;11.50;99.90;;;;;;4961932;28;20464;-86
2022/06/15 03:32:55;;;;;;;0.93;0.83;;;11.50;99.90;;;;;;4962674;28;20527;-87
2022/06/15 03:35:22;;;;;;;0.80;0.77;;;11.50;99.90;;;;;;4958505;28;20565;-86
2022/06/15 03:37:50;;;;;;;1.33;1.23;;;11.50;99.90;;;;;;4963139;28;20485;-86
2022/06/15 03:40:19;;;;;;;1.27;1.03;;;11.50;99.90;;;;;;4960377;28;20465;-86
2022/06/15 03:42:46;;;;;;;1.67;1.57;;;11.40;99.90;;;;;;4955522;28;20472;-86
2022/06/15 03:45:14;;;;;;;2.10;1.30;;;11.40;99.90;;;;;;4957303;28;20496;-86
2022/06/15 03:47:41;;;;;;;0.83;0.83;;;11.40;99.90;;;;;;4959566;28;20465;-86
2022/06/15 03:50:09;;;;;;;2.50;1.40;;;11.60;99.90;;;;;;4961060;28;20478;-87
2022/06/15 03:52:36;;;;;;;1.20;1.10;;;11.60;99.90;;;;;;4959010;28;20490;-86
2022/06/15 03:55:04;;;;;;;1.50;1.37;;;11.80;99.90;;;;;;4960527;28;20470;-86
2022/06/15 03:57:33;;;;;;;13.63;1.40;;;11.70;99.90;;;;;;4961741;28;20995;-86
2022/06/15 04:00:00;;;;;;;1.20;1.10;;;11.60;99.90;;;;;;4958216;28;20989;-86
2022/06/15 04:02:27;;;;;;;1.23;1.13;;;11.80;99.90;;;;;;4962128;28;20473;-86
2022/06/15 04:04:54;;;;;;;1.63;1.07;;;11.90;99.90;;;;;;4959235;28;20498;-87
2022/06/15 04:10:06;;;;;;;0.83;0.60;;;12.10;99.90;;;;;;4961665;28;20997;-86
2022/06/15 04:12:34;;;;;;;1.13;1.03;;;12.00;99.90;;;;;;4958897;28;20465;-86
2022/06/15 04:15:01;;;;;;;0.97;0.87;;;12.10;99.90;;;;;;4958789;28;20531;-87
2022/06/15 04:17:28;;;;;;;1.10;1.00;;;12.40;99.90;;;;;;4959417;28;20543;-86
2022/06/15 04:22:40;;;;;;;1.80;1.23;;;12.60;99.90;;;;;;4959281;28;20449;-87
2022/06/15 04:25:07;;;;;;;0.90;0.87;;;12.60;99.90;;;;;;4959858;28;20484;-87
2022/06/15 04:27:36;;;;;;;1.40;1.30;;;12.70;99.90;;;;;;4959203;28;21155;-86
2022/06/15 04:30:04;;;;;;;1.13;0.87;;;13.10;99.90;;;;;;4961425;28;20503;-87
2022/06/15 04:32:31;;;;;;;4.20;1.23;;;13.30;99.90;;;;;;4960736;28;20472;-86
2022/06/15 04:34:58;;;;;;;1.30;1.20;;;13.50;99.90;;;;;;4964854;28;20475;-86
2022/06/15 04:37:25;;;;;;;1.73;1.63;;;13.70;99.90;;;;;;4962648;28;20987;-87
2022/06/15 04:39:52;;;;;;;1.73;1.30;;;13.80;99.90;;;;;;4960430;28;21233;-86
2022/06/15 04:42:19;;;;;;;1.53;1.00;;;13.80;99.90;;;;;;4962932;28;20828;-90
2022/06/15 04:44:47;;;;;;;1.37;0.93;;;14.00;99.90;;;;;;4964375;28;20921;-88
2022/06/15 04:47:14;;;;;;;1.10;1.00;;;14.00;99.90;;;;;;4963697;28;20469;-87
2022/06/15 04:49:41;;;;;;;1.93;1.13;;;14.10;99.90;;;;;;4960853;28;20456;-88
2022/06/15 04:52:08;;;;;;;1.57;1.33;;;14.30;99.90;;;;;;4963094;28;20463;-88
2022/06/15 04:54:35;;;;;;;0.90;0.90;;;14.20;99.90;;;;;;4963551;28;20464;-88
2022/06/15 04:57:02;;;;;;;1.30;0.93;;;14.20;99.90;;;;;;4957766;28;20502;-88
2022/06/15 04:59:29;;;;;;;5.77;1.50;;;14.20;99.90;;;;;;4958339;28;20471;-87
2022/06/15 05:01:58;;;;;;;4.40;3.17;;;14.30;99.90;;;;;;4979457;28;20494;-88
2022/06/15 05:04:25;;;;;;;0.90;0.90;;;14.60;99.90;;;;;;4966288;28;20461;-88
2022/06/15 05:06:53;;;;;;;1.40;1.10;;;14.80;99.90;;;;;;4970479;28;20469;-88
2022/06/15 05:09:20;;;;;;;1.30;1.00;;;15.10;99.90;;;;;;4967630;28;20457;-88
2022/06/15 05:11:47;;;;;;;1.73;1.37;;;15.40;99.90;;;;;;4962956;28;20469;-89
2022/06/15 05:14:14;;;;;;;1.07;0.70;;;15.30;99.90;;;;;;4964461;28;20475;-88
2022/06/15 05:16:42;;;;;;;1.43;1.33;;;15.50;99.90;;;;;;4966296;28;20489;-87
2022/06/15 05:19:10;;;;;;;2.30;1.20;;;15.40;99.90;;;;;;4961574;28;21309;-88
2022/06/15 05:21:39;;;;;;;2.23;1.47;;;15.60;99.90;;;;;;4956553;28;20484;-87
2022/06/15 05:24:07;;;;;;;1.20;0.97;;;16.00;99.90;;;;;;4960006;28;20478;-87
2022/06/15 05:26:34;;;;;;;1.20;1.10;;;16.30;99.90;;;;;;4957818;28;20471;-87
2022/06/15 05:29:01;;;;;;;1.10;1.03;;;16.20;99.90;;;;;;4962546;28;20942;-87
2022/06/15 05:31:28;;;;;;;1.07;1.00;;;16.00;99.90;;;;;;4961090;28;20475;-88
2022/06/15 05:33:56;;;;;;;1.30;1.20;;;16.20;99.90;;;;;;4955071;28;20897;-88
2022/06/15 05:36:27;;;;;;;3.17;1.47;;;16.00;99.90;;;;;;4963995;28;21131;-89
2022/06/15 05:38:54;;;;;;;1.13;1.03;;;16.20;99.90;;;;;;4961967;28;20464;-88
2022/06/15 05:41:21;;;;;;;2.80;1.17;;;16.30;99.90;;;;;;4955436;28;20468;-89
2022/06/15 05:43:48;;;;;;;1.93;1.30;;;16.40;99.90;;;;;;4958096;28;20929;-88
2022/06/15 05:46:17;;;;;;;1.67;1.00;;;16.40;99.90;;;;;;4954649;28;20474;-88
2022/06/15 05:48:44;;;;;;;2.23;1.10;;;16.60;99.90;;;;;;4959090;28;20982;-87
2022/06/15 05:51:11;;;;;;;3.00;1.50;;;16.80;99.90;;;;;;4954736;28;20482;-88
2022/06/15 05:53:39;;;;;;;1.20;1.10;;;16.50;99.90;;;;;;4953697;28;20476;-87
2022/06/15 05:56:07;;;;;;;1.67;1.20;;;16.50;99.90;;;;;;4955935;28;20492;-89
2022/06/15 05:58:34;;;;;;;1.80;1.10;;;16.70;99.90;;;;;;4955051;28;20891;-87
2022/06/15 06:01:08;;;;;;;8.03;1.43;;;16.80;99.90;;;;;;4955361;28;20483;-87
2022/06/15 06:03:36;;;;;;;3.03;1.10;;;16.90;99.90;;;;;;4957886;28;20474;-87
2022/06/15 06:06:03;;;;;;;4.23;1.37;;;17.00;99.90;;;;;;4955852;28;20467;-87
2022/06/15 06:08:30;;;;;;;1.10;0.90;;;16.80;99.90;;;;;;4962069;28;20557;-89
2022/06/15 06:10:59;;;;;;;4.50;1.60;;;16.90;99.90;;;;;;4960475;28;20537;-88
2022/06/15 06:13:26;;;;;;;1.10;1.00;;;17.10;99.90;;;;;;4963478;28;20445;-88
2022/06/15 06:15:55;;;;;;;1.90;1.13;;;17.30;99.90;;;;;;4962869;28;20476;-88
2022/06/15 06:18:22;;;;;;;3.23;1.60;;;17.40;99.90;;;;;;4963225;28;20496;-88
2022/06/15 06:20:49;;;;;;;3.60;1.53;;;17.60;99.80;;;;;;4959394;28;20543;-87
2022/06/15 06:23:16;;;;;;;1.73;1.30;;;17.10;99.90;;;;;;4963180;28;20535;-87
2022/06/15 06:25:44;;;;;;;0.90;0.90;;;17.20;99.90;;;;;;4956128;28;20465;-86
2022/06/15 06:28:23;;;;;;;1.00;1.00;;;17.40;99.90;;;;;;4956651;28;20537;-91
2022/06/15 06:30:50;;;;;;;1.53;1.33;;;17.40;99.90;;;;;;4957089;28;20533;-85
2022/06/15 06:33:18;;;;;;;2.87;2.13;;;17.40;99.90;;;;;;4956539;28;20472;-88
2022/06/15 06:35:45;;;;;;;1.40;1.20;;;17.30;99.90;;;;;;4959431;28;21231;-85
2022/06/15 06:38:13;;;;;;;2.43;1.73;;;17.40;99.90;;;;;;4955767;28;20492;-85
2022/06/15 06:40:40;;;;;;;1.93;1.50;;;17.40;99.90;;;;;;4956017;28;20460;-85
2022/06/15 06:43:07;;;;;;;2.30;1.37;;;17.60;99.80;;;;;;4953833;28;20468;-85
2022/06/15 06:45:36;;;;;;;1.80;1.67;;;17.90;98.70;;;;;;4951697;28;20461;-85
2022/06/15 06:48:03;;;;;;;2.33;1.40;;;18.00;99.20;;;;;;4952832;28;20473;-85
2022/06/15 06:50:30;;;;;;;2.20;1.50;;;17.60;99.10;;;;;;4960177;28;20453;-85
2022/06/15 06:52:57;;;;;;;0.90;0.90;;;18.00;99.90;;;;;;4955294;28;20541;-85
2022/06/15 06:55:27;;;;;;;1.40;1.27;;;18.30;99.20;;;;;;4954569;28;20471;-85
2022/06/15 06:57:55;;;;;;;2.37;1.50;;;18.60;99.40;;;;;;4962783;28;20505;-85
2022/06/15 07:00:22;;;;;;;1.60;1.50;;;18.80;97.80;;;;;;4958658;28;20481;-84
2022/06/15 07:02:52;;;;;;;2.07;1.37;;;18.90;97.80;;;;;;4953005;28;20505;-87
2022/06/15 07:05:19;;;;;;;8.53;1.70;;;19.00;97.60;;;;;;4956040;28;20465;-86
2022/06/15 07:07:47;;;;;;;1.30;1.20;;;19.10;97.20;;;;;;4956315;28;20494;-85
2022/06/15 07:10:15;;;;;;;2.80;1.50;;;19.10;96.90;;;;;;4950326;28;20465;-86
2022/06/15 07:12:43;;;;;;;1.63;1.33;;;19.10;97.40;;;;;;4950568;28;20469;-85
2022/06/15 07:15:12;;;;;;;1.67;1.30;;;19.40;97.80;;;;;;4949613;28;20567;-85
2022/06/15 07:17:40;;;;;;;2.20;1.40;;;19.10;96.70;;;;;;4950914;28;21391;-87
2022/06/15 07:20:11;;;;;;;1.20;1.10;;;19.30;96.60;;;;;;4954407;28;20955;-86
2022/06/15 07:22:38;;;;;;;1.40;1.10;;;19.60;96.40;;;;;;4951706;28;20492;-86
2022/06/15 07:25:07;;;;;;;2.50;1.17;;;19.60;96.20;;;;;;4950644;28;20569;-86
2022/06/15 07:27:35;;;;;;;1.47;1.13;;;19.90;96.60;;;;;;4954591;28;20630;-87
2022/06/15 07:30:04;;;;;;;1.27;1.17;;;20.00;95.90;;;;;;4954768;28;20501;-88
2022/06/15 07:32:31;;;;;;;1.93;1.33;;;20.30;95.50;;;;;;4951596;28;20842;-87
2022/06/15 07:34:58;;;;;;;1.40;1.23;;;20.30;96.10;;;;;;4958578;28;20471;-85
2022/06/15 07:37:26;;;;;;;1.20;1.10;;;20.40;95.60;;;;;;4957447;28;20493;-85
2022/06/15 07:39:53;;;;;;;1.27;1.03;;;20.80;96.00;;;;;;4959242;28;20769;-86
2022/06/15 07:42:21;;;;;;;1.27;1.17;;;20.60;94.80;;;;;;4957662;28;20495;-84
2022/06/15 07:44:49;;;;;;;2.10;1.27;;;20.70;96.00;;;;;;4958245;28;20468;-85
2022/06/15 07:50:00;;;;;;;1.10;1.07;;;20.90;94.90;;;;;;4924734;28;20507;-85
2022/06/15 07:52:32;;;;;;;2.53;1.23;;;20.80;92.40;;;;;;4953256;28;22273;-93
2022/06/15 07:55:00;;;;;;;2.03;1.10;;;20.70;93.60;;;;;;4954538;28;20525;-85
2022/06/15 07:57:27;;;;;;;2.60;1.00;;;20.70;92.50;;;;;;4954849;28;20512;-85
2022/06/15 07:59:54;;;;;;;2.50;1.83;;;20.60;93.20;;;;;;4951751;28;20529;-86
2022/06/15 08:02:22;;;;;;;4.23;1.30;;;20.70;93.50;;;;;;4950955;28;20467;-87
2022/06/15 08:04:49;;;;;;;0.90;0.90;;;20.70;93.60;;;;;;4966125;28;21916;-86
2022/06/15 08:07:17;;;;;;;1.73;1.10;;;20.70;93.70;;;;;;4974393;28;20472;-85
2022/06/15 08:09:46;;;;;;;1.07;0.97;;;20.70;94.50;;;;;;4959133;28;20468;-85
2022/06/15 08:12:15;;;;;;;1.93;1.17;;;21.00;93.40;;;;;;4962229;28;20476;-84
2022/06/15 08:14:45;;;;;;;4.17;1.63;;;20.90;92.50;;;;;;4956751;28;20474;-85
2022/06/15 08:17:17;;;;;;;2.27;1.30;;;21.20;92.70;;;;;;4952678;28;20522;-84
2022/06/15 08:19:48;;;;;;;3.93;1.30;;;21.30;92.20;;;;;;4961441;28;20998;-86
2022/06/15 08:22:15;;;;;;;2.40;1.03;;;21.20;91.10;;;;;;4952091;28;20465;-85
2022/06/15 08:24:44;;;;;;;2.53;1.73;;;21.60;93.20;;;;;;4961420;28;20468;-85
2022/06/15 08:27:14;;;;;;;1.00;1.00;;;21.50;91.80;;;;;;4955810;28;20476;-85
2022/06/15 08:29:42;;;;;;;7.03;1.30;;;22.20;92.10;;;;;;4960556;28;20513;-87
2022/06/15 08:32:09;;;;;;;2.80;1.47;;;22.40;91.70;;;;;;4953643;28;20522;-86
2022/06/15 08:34:37;;;;;;;3.07;1.30;;;22.20;90.40;;;;;;4958227;28;20491;-86
2022/06/15 08:37:06;;;;;;;1.13;0.90;;;22.20;91.00;;;;;;4962116;28;20464;-85
2022/06/15 08:39:34;;;;;;;0.97;0.97;;;22.50;91.10;;;;;;4952521;28;20484;-85
2022/06/15 08:42:10;;;;;;;0.80;0.80;;;22.60;91.50;;;;;;4953888;28;20468;-87
2022/06/15 08:44:49;;;;;;;2.30;1.87;;;22.50;89.10;;;;;;4954617;28;20547;-85
2022/06/15 08:47:37;;;;;;;1.30;1.20;;;22.80;91.10;;;;;;4960662;28;20468;-86
2022/06/15 08:50:17;;;;;;;1.63;1.00;;;22.80;90.40;;;;;;4960364;28;20870;-87
2022/06/15 08:53:07;;;;;;;0.90;0.77;;;22.60;89.90;;;;;;4964158;28;20551;-88
2022/06/15 08:55:42;;;;;;;1.00;1.00;;;22.70;90.40;;;;;;4962794;28;20575;-85
2022/06/15 08:58:16;;;;;;;1.70;1.60;;;22.80;88.90;;;;;;4960424;28;20537;-87
2022/06/15 09:00:45;;;;;;;1.40;1.30;;;22.80;88.90;;;;;;4961173;28;20545;-84
2022/06/15 09:03:23;;;;;;;1.97;1.50;;;22.70;88.00;;;;;;4955361;28;20483;-86
2022/06/15 09:06:00;;;;;;;1.00;0.80;;;23.10;88.60;;;;;;4965633;28;20472;-93
2022/06/15 09:08:59;;;;;;;1.03;0.87;;;23.10;89.40;;;;;;4961402;28;20518;-90
2022/06/15 09:11:37;;;;;;;1.20;1.10;;;23.00;87.90;;;;;;4956307;28;20472;-85
2022/06/15 09:14:17;;;;;;;2.93;1.17;;;23.30;87.90;;;;;;4950021;28;20472;-85
2022/06/15 09:16:54;;;;;;;1.40;1.00;;;23.50;89.40;;;;;;4963612;28;20996;-86
2022/06/15 09:19:27;;;;;;;1.13;1.03;;;23.50;90.20;;;;;;4954500;28;20492;-86
2022/06/15 09:22:01;;;;;;;1.40;1.30;;;23.60;87.30;;;;;;4959285;28;20516;-85
2022/06/15 09:24:37;;;;;;;1.43;1.00;;;23.60;86.60;;;;;;4961342;28;20518;-85
2022/06/15 09:27:09;;;;;;;1.00;1.00;;;23.60;90.20;;;;;;4955888;28;20473;-85
2022/06/15 09:29:41;;;;;;;0.83;0.83;;;23.90;90.10;;;;;;4954196;28;20472;-86
2022/06/15 09:32:17;;;;;;;1.10;1.00;;;24.00;90.60;;;;;;4951504;28;20499;-86
2022/06/15 09:34:50;;;;;;;2.90;1.47;;;23.90;85.60;;;;;;4958817;28;20525;-86
2022/06/15 09:37:20;;;;;;;1.03;0.93;;;24.10;85.50;;;;;;4956344;28;20496;-86
2022/06/15 09:39:48;;;;;;;6.33;1.63;;;24.00;85.80;;;;;;4957289;28;20550;-86
2022/06/15 09:42:19;;;;;;;1.57;1.10;;;24.20;90.30;;;;;;4963663;28;20490;-87
2022/06/15 09:44:53;;;;;;;2.40;1.57;;;24.50;89.30;;;;;;4960364;28;20463;-85
2022/06/15 09:47:41;;;;;;;1.40;1.30;;;24.40;89.40;;;;;;4961533;28;20949;-85
2022/06/15 09:50:19;;;;;;;1.53;1.13;;;24.30;87.60;;;;;;4961701;28;20476;-84
2022/06/15 09:53:01;;;;;;;1.70;1.10;;;24.10;87.10;;;;;;4955729;28;20554;-86
2022/06/15 09:55:36;;;;;;;1.70;1.13;;;24.10;85.10;;;;;;4958523;28;21390;-86
2022/06/15 09:58:05;;;;;;;1.43;1.00;;;24.00;87.80;;;;;;4953061;28;21063;-87
2022/06/15 10:00:33;;;;;;;1.13;1.03;;;24.10;85.20;;;;;;4955747;28;20569;-86
2022/06/15 10:03:05;;;;;;;1.97;1.83;;;24.30;87.50;;;;;;4956626;28;20476;-85
2022/06/15 10:05:36;;;;;;;1.10;1.00;;;24.30;82.50;;;;;;4957488;28;20850;-85
2022/06/15 10:08:06;;;;;;;2.00;1.50;;;24.50;84.30;;;;;;4963021;28;20468;-86
2022/06/15 10:10:40;;;;;;;1.50;1.10;;;24.50;82.00;;;;;;4965328;28;20545;-86
2022/06/15 10:13:27;;;;;;;2.20;1.30;;;24.90;81.70;;;;;;4961057;28;20554;-87
2022/06/15 10:15:57;;;;;;;1.53;1.43;;;24.80;77.90;;;;;;4963370;28;20539;-87
2022/06/15 10:18:32;;;;;;;0.97;0.97;;;24.90;78.40;;;;;;4963379;28;20488;-86
2022/06/15 10:21:20;;;;;;;1.20;1.10;;;24.70;80.00;;;;;;4965001;28;20444;-87
2022/06/15 10:23:55;;;;;;;1.20;0.90;;;24.90;79.10;;;;;;4957852;28;20465;-85
2022/06/15 10:26:38;;;;;;;1.97;1.40;;;24.90;77.50;;;;;;4965958;28;20464;-85
2022/06/15 10:29:26;;;;;;;1.30;1.20;;;25.00;77.90;;;;;;4958867;28;20464;-87
2022/06/15 10:32:17;;;;;;;0.80;0.80;;;25.10;77.10;;;;;;4961581;28;20889;-86
2022/06/15 10:34:56;;;;;;;1.57;1.47;;;25.20;79.10;;;;;;4963681;28;20921;-87
2022/06/15 10:37:28;;;;;;;1.17;1.07;;;25.10;76.20;;;;;;4949312;28;20540;-87
2022/06/15 10:39:59;;;;;;;1.17;1.00;;;24.90;73.60;;;;;;4961760;28;20484;-87
2022/06/15 10:42:33;;;;;;;3.43;1.33;;;25.10;72.70;;;;;;4955330;28;20459;-87
2022/06/15 10:45:01;;;;;;;1.20;1.10;;;25.00;76.90;;;;;;4955696;28;20453;-87
2022/06/15 10:47:39;;;;;;;1.57;1.00;;;25.20;73.50;;;;;;4960993;28;20880;-87
2022/06/15 10:50:18;;;;;;;1.20;1.10;;;25.40;72.80;;;;;;4958886;28;21202;-87
2022/06/15 10:52:51;;;;;;;1.40;0.80;;;25.40;69.60;;;;;;4964682;28;20806;-88
2022/06/15 11:04:07;;;;;;;1.10;0.90;;;26.20;70.10;;;;;;4962937;28;20463;-87
2022/06/15 11:06:43;;;;;;;1.83;1.10;;;26.10;70.10;;;;;;4957653;28;20783;-88
2022/06/15 11:09:24;;;;;;;0.93;0.90;;;26.10;68.30;;;;;;4975877;28;20484;-88
2022/06/15 11:11:51;;;;;;;1.80;0.90;;;26.30;68.40;;;;;;4964672;28;20893;-87
2022/06/15 11:14:24;;;;;;;4.63;1.00;;;26.40;64.90;;;;;;4962281;28;20552;-88
2022/06/15 11:19:52;;;;;;;2.10;0.90;;;26.60;72.80;;;;;;4958181;28;20994;-87
2022/06/15 11:22:22;;;;;;;1.07;0.97;;;26.60;65.60;;;;;;4958081;28;20583;-87
2022/06/15 11:24:55;;;;;;;0.90;0.80;;;26.60;65.40;;;;;;4958116;28;20471;-87
2022/06/15 11:27:26;;;;;;;1.23;0.77;;;26.20;65.30;;;;;;4962768;28;20521;-87
2022/06/15 11:29:58;;;;;;;1.20;1.10;;;26.30;71.60;;;;;;4959602;28;20555;-87
2022/06/15 11:32:38;;;;;;;1.30;1.07;;;26.40;65.60;;;;;;4959126;28;20499;-89
2022/06/15 11:35:35;;;;;;;5.33;0.70;;;26.20;65.90;;;;;;4962149;28;20466;-88
2022/06/15 11:38:14;;;;;;;1.80;0.93;;;26.50;63.10;;;;;;4956060;28;20561;-87
2022/06/15 11:40:44;;;;;;;1.33;1.00;;;26.60;59.50;;;;;;4963011;28;20538;-87
2022/06/15 11:43:18;;;;;;;2.00;1.17;;;26.60;63.40;;;;;;4961777;28;20461;-88
2022/06/15 11:46:03;;;;;;;5.10;0.80;;;26.80;64.60;;;;;;4965844;28;20468;-87
2022/06/15 11:48:41;;;;;;;1.53;0.90;;;26.70;62.50;;;;;;4961719;28;20467;-87
2022/06/15 11:51:17;;;;;;;1.67;0.77;;;26.80;61.60;;;;;;4961834;28;20831;-87
2022/06/15 11:53:56;;;;;;;3.33;0.80;;;26.90;60.70;;;;;;4963195;28;21129;-87
2022/06/15 11:56:25;;;;;;;1.23;0.70;;;26.70;59.00;;;;;;4964365;28;20981;-87
2022/06/15 11:59:00;;;;;;;4.17;0.93;;;27.10;57.90;;;;;;4964285;28;20844;-87
2022/06/15 12:01:40;;;;;;;0.73;0.73;;;27.40;59.70;;;;;;4965519;28;20886;-87
2022/06/15 12:04:40;;;;;;;0.93;0.80;;;27.20;59.70;;;;;;4958152;28;20556;-87
2022/06/15 12:07:14;;;;;;;1.43;0.70;;;27.20;60.90;;;;;;4958274;28;20460;-88
2022/06/15 12:09:53;;;;;;;1.77;0.60;;;27.00;55.30;;;;;;4961585;28;21395;-88
2022/06/15 12:12:40;;;;;;;0.90;0.60;;;26.80;55.60;;;;;;4958890;28;20457;-88
2022/06/15 12:15:27;;;;;;;0.90;0.90;;;27.10;54.70;;;;;;4962275;28;20492;-87
2022/06/15 12:18:00;;;;;;;0.87;0.70;;;27.40;56.70;;;;;;4963159;28;20472;-88
2022/06/15 12:20:44;;;;;;;0.77;0.77;;;27.50;55.60;;;;;;4955958;28;20487;-87
2022/06/15 12:23:23;;;;;;;0.60;0.60;;;27.30;58.50;;;;;;4957774;28;20444;-87
2022/06/15 12:26:02;;;;;;;0.70;0.70;;;27.20;54.10;;;;;;4961652;28;20965;-88
2022/06/15 12:28:36;;;;;;;1.20;0.90;;;27.10;57.30;;;;;;4950992;28;20483;-87
2022/06/15 12:31:11;;;;;;;0.67;0.67;;;27.20;57.90;;;;;;4957884;28;20503;-87
2022/06/15 12:33:44;;;;;;;0.67;0.60;;;27.20;56.90;;;;;;4954034;28;20949;-87
2022/06/15 12:36:17;;;;;;;1.23;0.60;;;27.30;56.30;;;;;;4958042;28;20526;-87
2022/06/15 12:38:53;;;;;;;0.80;0.80;;;27.40;55.70;;;;;;4963783;28;20957;-88
2022/06/15 12:44:20;;;;;;;0.80;0.70;;;27.80;56.30;;;;;;4961548;28;20459;-88
2022/06/15 12:46:48;;;;;;;1.30;0.90;;;28.10;57.10;;;;;;4965198;28;20456;-88
2022/06/15 12:49:27;;;;;;;1.83;0.70;;;28.10;56.20;;;;;;4962284;28;20478;-88
2022/06/15 12:52:05;;;;;;;1.03;0.80;;;28.10;56.40;;;;;;4956911;28;20482;-87
2022/06/15 12:54:39;;;;;;;0.80;0.70;;;28.10;53.10;;;;;;4959973;28;20463;-89
2022/06/15 12:57:13;;;;;;;1.40;0.60;;;28.00;56.30;;;;;;4962013;28;21866;-89
2022/06/15 12:59:50;;;;;;;1.83;0.70;;;27.60;55.50;;;;;;4961275;28;20487;-89
2022/06/15 13:02:22;;;;;;;3.03;0.80;;;27.60;54.70;;;;;;4952214;28;20483;-89
2022/06/15 13:05:06;;;;;;;0.60;0.60;;;27.80;52.50;;;;;;4956676;28;20475;-89
2022/06/15 13:07:35;;;;;;;1.10;1.00;;;28.10;53.40;;;;;;4957245;28;20468;-86
2022/06/15 13:10:29;;;;;;;0.70;0.60;;;27.90;53.50;;;;;;4956197;28;20492;-87
2022/06/15 13:13:00;;;;;;;2.23;0.80;;;27.70;53.70;;;;;;4954374;28;20472;-86
2022/06/15 13:15:35;;;;;;;0.80;0.60;;;27.50;53.90;;;;;;4956273;28;20465;-87
2022/06/15 13:18:09;;;;;;;1.83;0.70;;;27.70;54.80;;;;;;4957659;28;20470;-88
2022/06/15 13:21:02;;;;;;;0.53;0.50;;;27.80;53.80;;;;;;4958967;28;20485;-87
2022/06/15 13:23:33;;;;;;;0.80;0.60;;;28.10;51.60;;;;;;4957904;28;20519;-87
2022/06/15 13:26:29;;;;;;;0.60;0.60;;;28.30;49.40;;;;;;4958018;28;20544;-87
2022/06/15 13:29:21;;;;;;;0.73;0.57;;;28.30;48.80;;;;;;4955405;28;20551;-88
2022/06/15 13:31:51;;;;;;;0.80;0.60;;;28.10;48.60;;;;;;4959203;28;20472;-87
2022/06/15 13:34:45;;;;;;;7.67;0.60;;;27.80;48.40;;;;;;4968454;28;20461;-88